createdAt,value
2022-08-15T13:27:35.942Z,98760.25
2022-08-15T13:30:19.710Z,98762.06
2022-08-15T13:32:47.543Z,98737.91
2022-08-15T13:35:17.903Z,98725.41
2022-08-15T13:37:59.589Z,98708.66
2022-08-15T13:40:31.112Z,98695.97
2022-08-15T13:43:11.697Z,98684.97
2022-08-15T13:45:56.249Z,98689.94
2022-08-15T13:48:37.252Z,98682.69
2022-08-15T13:51:13.289Z,98697.84
2022-08-15T13:56:32.560Z,98726.84
2022-08-15T13:59:01.277Z,98724.72
2022-08-15T14:01:34.523Z,98764.28
2022-08-15T14:04:06.511Z,98793.91
2022-08-15T14:06:35.927Z,98801.31
2022-08-15T14:09:17.728Z,98805.94
2022-08-15T14:11:57.576Z,98769.53
2022-08-15T14:14:36.631Z,98745.78
2022-08-15T14:17:08.539Z,98749.88
2022-08-15T14:20:02.813Z,98735.97
2022-08-15T14:22:27.192Z,98719.09
2022-08-15T14:25:15.283Z,98708.91
2022-08-15T14:27:50.998Z,98721.16
2022-08-15T14:30:19.620Z,98734.88
2022-08-15T14:35:35.019Z,98739.34
2022-08-15T14:38:12.418Z,98754.72
2022-08-15T14:40:43.005Z,98763.84
2022-08-15T14:43:17.601Z,98759.28
2022-08-15T14:46:35.679Z,98765.31
2022-08-15T14:48:47.169Z,98763.84
2022-08-15T14:52:12.028Z,98783.41
2022-08-15T14:54:43.588Z,98786.09
2022-08-15T14:57:08.065Z,98807.41
2022-08-15T14:59:56.831Z,98810.41
2022-08-15T15:02:28.244Z,98839.22
2022-08-15T15:04:57.867Z,98870.53
2022-08-15T15:07:54.728Z,98887.78
2022-08-15T15:10:25.183Z,98901.63
2022-08-15T15:12:59.048Z,98921.28
2022-08-15T15:15:28.078Z,98936.69
2022-08-15T15:18:33.761Z,98952.03
2022-08-15T15:20:57.651Z,98962.16
2022-08-15T15:23:26.503Z,98991.25
2022-08-15T15:25:54.093Z,98998.19
2022-08-15T15:28:41.746Z,99031.00
2022-08-15T15:31:12.057Z,99051.91
2022-08-15T15:33:43.296Z,99054.91
2022-08-15T15:36:28.863Z,99095.81
2022-08-15T15:39:02.364Z,99118.50
2022-08-15T15:41:45.942Z,99147.44
2022-08-15T15:44:23.161Z,99192.38
2022-08-15T15:46:54.349Z,99225.16
2022-08-15T15:49:35.861Z,99270.09
2022-08-15T15:52:09.800Z,99298.41
2022-08-15T15:54:52.581Z,99313.44
2022-08-15T15:57:21.265Z,99335.00
2022-08-15T15:59:58.093Z,99368.69
2022-08-15T16:02:43.610Z,99392.94
2022-08-15T16:05:19.790Z,99408.06
2022-08-15T16:07:55.822Z,99435.72
2022-08-15T16:10:33.306Z,99466.31
2022-08-15T16:13:06.338Z,99490.78
2022-08-15T16:15:55.107Z,99510.44
2022-08-15T16:18:34.917Z,99522.94
2022-08-15T16:21:30.981Z,99549.63
2022-08-15T16:24:07.127Z,99567.44
2022-08-15T16:26:53.824Z,99585.25
2022-08-15T16:29:33.476Z,99607.53
2022-08-15T16:32:32.248Z,99635.03
2022-08-15T16:35:07.837Z,99659.28
2022-08-15T16:37:42.570Z,99675.47
2022-08-15T16:40:24.018Z,99702.06
2022-08-15T16:43:05.618Z,99709.75
2022-08-15T16:46:00.584Z,99739.50
2022-08-15T16:48:59.039Z,99737.44
2022-08-15T16:51:55.718Z,99787.22
2022-08-15T16:54:47.658Z,99807.16
2022-08-15T16:57:27.569Z,99810.25
2022-08-15T17:00:18.699Z,99838.75
2022-08-15T17:03:10.483Z,99851.53
2022-08-15T17:06:06.019Z,99871.53
2022-08-15T17:08:50.338Z,99886.44
2022-08-15T17:11:41.133Z,99917.06
2022-08-15T17:14:47.977Z,99930.16
2022-08-15T17:17:31.432Z,99940.09
2022-08-15T17:20:01.010Z,99958.38
2022-08-15T17:22:36.211Z,99965.97
2022-08-15T17:25:36.514Z,99981.72
2022-08-15T17:28:34.575Z,99992.13
2022-08-15T17:31:09.901Z,99993.69
2022-08-15T17:34:02.866Z,100012.28
2022-08-15T17:36:50.410Z,100013.25
2022-08-15T17:39:34.498Z,100022.53
2022-08-15T17:42:01.849Z,100021.97
2022-08-15T17:44:58.455Z,100019.69
2022-08-15T17:47:35.369Z,100010.75
2022-08-15T17:50:59.072Z,100013.13
2022-08-15T17:53:30.628Z,100010.56
2022-08-15T17:56:03.710Z,100006.09
2022-08-15T17:58:34.454Z,100019.69
2022-08-15T18:01:02.268Z,100016.47
2022-08-15T18:03:29.831Z,100029.19
2022-08-15T18:06:04.533Z,100029.38
2022-08-15T18:08:36.588Z,100034.03
2022-08-15T18:11:04.584Z,100042.28
2022-08-15T18:13:39.452Z,100046.06
2022-08-15T18:16:18.693Z,100049.66
2022-08-15T18:18:47.328Z,100054.31
2022-08-15T18:21:54.915Z,100070.25
2022-08-15T18:24:52.327Z,100078.28
2022-08-15T18:27:33.801Z,100087.56
2022-08-15T18:30:16.850Z,100091.19
2022-08-15T18:32:52.440Z,100110.22
2022-08-15T18:35:27.636Z,100118.28
2022-08-15T18:38:04.601Z,100129.28
2022-08-15T18:40:58.415Z,100137.59
2022-08-15T18:43:42.517Z,100150.97
2022-08-15T18:46:14.344Z,100152.34
2022-08-15T18:48:59.527Z,100171.84
2022-08-15T18:51:33.647Z,100176.94
2022-08-15T18:54:49.377Z,100185.50
2022-08-15T18:57:43.590Z,100194.91
2022-08-15T19:00:16.444Z,100201.56
2022-08-15T19:02:44.363Z,100216.78
2022-08-15T19:05:23.775Z,100228.34
2022-08-15T19:07:54.989Z,100254.78
2022-08-15T19:10:25.467Z,100268.91
2022-08-15T19:13:15.923Z,100278.53
2022-08-15T19:15:54.514Z,100285.66
2022-08-15T19:18:35.172Z,100302.69
2022-08-15T19:21:10.740Z,100300.25
2022-08-15T19:23:47.762Z,100304.72
2022-08-15T19:26:31.271Z,100303.94
2022-08-15T19:29:33.423Z,100322.50
2022-08-15T19:32:30.735Z,100328.31
2022-08-15T19:35:16.325Z,100345.00
2022-08-15T19:38:14.091Z,100359.66
2022-08-15T19:41:20.415Z,100360.84
2022-08-15T19:44:07.352Z,100353.88
2022-08-15T19:46:56.549Z,100346.91
2022-08-15T19:50:05.420Z,100333.91
2022-08-15T19:52:49.113Z,100316.47
2022-08-15T19:55:43.138Z,100302.41
2022-08-15T19:58:31.799Z,100290.41
2022-08-15T20:01:07.340Z,100263.16
2022-08-15T20:03:43.906Z,100241.03
2022-08-15T20:06:27.465Z,100223.28
2022-08-15T20:09:04.794Z,100202.09
2022-08-15T20:12:06.734Z,100179.16
2022-08-15T20:14:46.334Z,100161.03
2022-08-15T20:17:59.235Z,100146.94
2022-08-15T20:20:59.301Z,100125.06
2022-08-15T20:24:00.082Z,100111.84
2022-08-15T20:26:54.098Z,100093.38
2022-08-15T20:29:43.950Z,100079.38
2022-08-15T20:32:45.810Z,100069.88
2022-08-15T20:35:17.084Z,100058.97
2022-08-15T20:37:53.502Z,100049.50
2022-08-15T20:40:26.362Z,100026.78
2022-08-15T20:42:59.820Z,100017.13
2022-08-15T20:45:33.836Z,100005.00
2022-08-15T20:48:44.005Z,99997.06
2022-08-15T20:51:09.091Z,99989.63
2022-08-15T20:53:41.011Z,99982.72
2022-08-15T20:56:08.803Z,99972.94
2022-08-15T20:59:01.922Z,99963.44
2022-08-15T21:01:33.387Z,99950.47
2022-08-15T21:04:22.259Z,99951.66
2022-08-15T21:06:59.480Z,99946.69
2022-08-15T21:09:43.905Z,99942.91
2022-08-15T21:12:30.722Z,99940.38
2022-08-15T21:16:03.269Z,99929.25
2022-08-15T21:18:45.178Z,99934.72
2022-08-15T21:21:26.349Z,99933.66
2022-08-15T21:24:03.284Z,99930.22
2022-08-15T21:26:40.469Z,99928.66
2022-08-15T21:29:27.885Z,99924.16
2022-08-15T21:31:58.206Z,99928.81
2022-08-15T21:34:36.508Z,99920.47
2022-08-15T21:37:12.244Z,99922.31
2022-08-15T21:40:31.730Z,99929.78
2022-08-15T21:42:59.154Z,99916.66
2022-08-15T21:45:42.865Z,99925.19
2022-08-15T21:48:35.246Z,99922.97
2022-08-15T21:51:35.930Z,99923.09
2022-08-15T21:54:25.465Z,99918.97
2022-08-15T21:57:00.595Z,99917.41
2022-08-15T22:00:19.163Z,99916.09
2022-08-15T22:03:14.263Z,99923.41
2022-08-15T22:05:52.217Z,99922.63
2022-08-15T22:08:57.812Z,99926.97
2022-08-15T22:11:40.619Z,99927.66
2022-08-15T22:14:08.244Z,99924.47
2022-08-15T22:17:01.334Z,99931.34
2022-08-15T22:19:28.655Z,99935.84
2022-08-15T22:22:08.699Z,99938.84
2022-08-15T22:24:47.995Z,99941.56
2022-08-15T22:27:21.434Z,99938.56
2022-08-15T22:29:50.839Z,99932.97
2022-08-15T22:32:31.236Z,99941.25
2022-08-15T22:34:59.827Z,99937.84
2022-08-15T22:37:34.550Z,99941.69
2022-08-15T22:40:17.064Z,99938.41
2022-08-15T22:43:02.087Z,99941.63
2022-08-15T22:45:47.425Z,99936.75
2022-08-15T22:48:24.795Z,99937.78
2022-08-15T22:51:01.616Z,99927.94
2022-08-15T22:53:38.297Z,99935.03
2022-08-15T22:56:45.152Z,99939.38
2022-08-15T22:58:58.886Z,99935.34
2022-08-15T23:01:32.663Z,99933.91
2022-08-15T23:04:40.431Z,99940.44
2022-08-15T23:07:21.205Z,99947.06
2022-08-15T23:09:56.997Z,99954.44
2022-08-15T23:12:32.363Z,99946.97
2022-08-15T23:15:07.511Z,99950.81
2022-08-15T23:17:45.672Z,99949.97
2022-08-15T23:20:38.733Z,99949.69
2022-08-15T23:23:11.007Z,99963.53
2022-08-15T23:25:49.687Z,99948.13
2022-08-15T23:28:29.961Z,99961.16
2022-08-15T23:31:09.437Z,99960.50
2022-08-15T23:33:54.716Z,99964.34
2022-08-15T23:36:59.693Z,99958.22
2022-08-15T23:39:46.259Z,99964.66
2022-08-15T23:42:12.926Z,99953.81
2022-08-15T23:44:42.590Z,99954.34
2022-08-15T23:47:13.267Z,99957.78
2022-08-15T23:49:41.658Z,99955.78
2022-08-15T23:52:18.103Z,99951.94
2022-08-15T23:54:46.075Z,99944.69
2022-08-15T23:57:15.660Z,99945.25
2022-08-15T23:59:55.877Z,99955.75
